sensor_id;sensor_type;location;lat;lon;timestamp;temperature;humidity
61004;DHT22;46889;37.310;13.582;2023-09-18T00:01:09;25.00;99.90
61004;DHT22;46889;37.310;13.582;2023-09-18T00:03:35;24.90;99.90
61004;DHT22;46889;37.310;13.582;2023-09-18T00:06:01;24.90;99.90
61004;DHT22;46889;37.310;13.582;2023-09-18T00:08:27;24.80;99.90
61004;DHT22;46889;37.310;13.582;2023-09-18T00:10:53;24.80;99.90
61004;DHT22;46889;37.310;13.582;2023-09-18T00:13:19;24.80;99.90
61004;DHT22;46889;37.310;13.582;2023-09-18T00:15:45;24.70;99.90
61004;DHT22;46889;37.310;13.582;2023-09-18T00:18:15;24.70;99.90
61004;DHT22;46889;37.310;13.582;2023-09-18T00:20:41;24.80;99.90
61004;DHT22;46889;37.310;13.582;2023-09-18T00:23:07;24.70;99.90
61004;DHT22;46889;37.310;13.582;2023-09-18T00:25:34;24.70;99.90
61004;DHT22;46889;37.310;13.582;2023-09-18T00:27:59;24.70;99.90
61004;DHT22;46889;37.310;13.582;2023-09-18T00:30:25;24.60;99.90
61004;DHT22;46889;37.310;13.582;2023-09-18T00:32:51;24.60;99.90
61004;DHT22;46889;37.310;13.582;2023-09-18T00:35:17;24.60;99.90
61004;DHT22;46889;37.310;13.582;2023-09-18T00:37:43;24.60;99.90
61004;DHT22;46889;37.310;13.582;2023-09-18T00:40:09;24.60;99.90
61004;DHT22;46889;37.310;13.582;2023-09-18T00:42:34;24.60;99.90
61004;DHT22;46889;37.310;13.582;2023-09-18T00:45:01;24.60;99.90
61004;DHT22;46889;37.310;13.582;2023-09-18T00:47:27;24.60;99.90
61004;DHT22;46889;37.310;13.582;2023-09-18T00:49:53;24.50;99.90
61004;DHT22;46889;37.310;13.582;2023-09-18T00:52:20;24.60;99.90
61004;DHT22;46889;37.310;13.582;2023-09-18T00:54:47;24.60;99.90
61004;DHT22;46889;37.310;13.582;2023-09-18T00:57:13;24.50;99.90
61004;DHT22;46889;37.310;13.582;2023-09-18T00:59:39;24.50;99.90
61004;DHT22;46889;37.310;13.582;2023-09-18T01:02:05;24.60;99.90
61004;DHT22;46889;37.310;13.582;2023-09-18T01:04:32;24.60;99.90
61004;DHT22;46889;37.310;13.582;2023-09-18T01:06:58;24.60;99.90
61004;DHT22;46889;37.310;13.582;2023-09-18T01:09:26;24.60;99.90
61004;DHT22;46889;37.310;13.582;2023-09-18T01:12:06;24.60;99.90
61004;DHT22;46889;37.310;13.582;2023-09-18T01:17:05;24.60;99.90
61004;DHT22;46889;37.310;13.582;2023-09-18T01:19:45;24.60;99.90
61004;DHT22;46889;37.310;13.582;2023-09-18T01:22:13;24.60;99.90
61004;DHT22;46889;37.310;13.582;2023-09-18T01:24:39;24.60;99.90
61004;DHT22;46889;37.310;13.582;2023-09-18T01:27:07;24.70;99.90
61004;DHT22;46889;37.310;13.582;2023-09-18T01:29:33;24.70;99.90
61004;DHT22;46889;37.310;13.582;2023-09-18T01:31:59;24.80;99.90
61004;DHT22;46889;37.310;13.582;2023-09-18T01:34:35;24.70;99.90
61004;DHT22;46889;37.310;13.582;2023-09-18T01:37:02;24.70;99.90
61004;DHT22;46889;37.310;13.582;2023-09-18T01:39:28;24.70;99.90
61004;DHT22;46889;37.310;13.582;2023-09-18T01:42:03;24.70;99.90
61004;DHT22;46889;37.310;13.582;2023-09-18T01:44:30;24.60;99.90
61004;DHT22;46889;37.310;13.582;2023-09-18T01:47:01;24.60;99.90
61004;DHT22;46889;37.310;13.582;2023-09-18T01:49:34;24.60;99.90
61004;DHT22;46889;37.310;13.582;2023-09-18T01:52:00;24.70;99.90
61004;DHT22;46889;37.310;13.582;2023-09-18T01:54:26;24.70;99.90
61004;DHT22;46889;37.310;13.582;2023-09-18T01:56:52;24.60;99.90
61004;DHT22;46889;37.310;13.582;2023-09-18T01:59:22;24.60;99.90
61004;DHT22;46889;37.310;13.582;2023-09-18T02:01:48;24.60;99.90
61004;DHT22;46889;37.310;13.582;2023-09-18T02:04:14;24.50;99.90
61004;DHT22;46889;37.310;13.582;2023-09-18T02:06:39;24.50;99.90
61004;DHT22;46889;37.310;13.582;2023-09-18T02:09:06;24.50;99.90
61004;DHT22;46889;37.310;13.582;2023-09-18T02:11:37;24.50;99.90
61004;DHT22;46889;37.310;13.582;2023-09-18T02:14:03;24.50;99.90
61004;DHT22;46889;37.310;13.582;2023-09-18T02:16:34;24.50;99.90
61004;DHT22;46889;37.310;13.582;2023-09-18T02:19:01;24.40;99.90
61004;DHT22;46889;37.310;13.582;2023-09-18T02:21:27;24.50;99.90
61004;DHT22;46889;37.310;13.582;2023-09-18T02:23:53;24.40;99.90
61004;DHT22;46889;37.310;13.582;2023-09-18T02:26:20;24.40;99.90
61004;DHT22;46889;37.310;13.582;2023-09-18T02:28:46;24.40;99.90
61004;DHT22;46889;37.310;13.582;2023-09-18T02:31:12;24.40;99.90
61004;DHT22;46889;37.310;13.582;2023-09-18T02:33:38;24.40;99.90
61004;DHT22;46889;37.310;13.582;2023-09-18T02:36:05;24.40;99.90
61004;DHT22;46889;37.310;13.582;2023-09-18T02:38:30;24.40;99.90
61004;DHT22;46889;37.310;13.582;2023-09-18T02:40:56;24.40;99.90
61004;DHT22;46889;37.310;13.582;2023-09-18T02:43:22;24.40;99.90
61004;DHT22;46889;37.310;13.582;2023-09-18T02:45:49;24.40;99.90
61004;DHT22;46889;37.310;13.582;2023-09-18T02:48:14;24.30;99.90
61004;DHT22;46889;37.310;13.582;2023-09-18T02:50:40;24.40;99.90
61004;DHT22;46889;37.310;13.582;2023-09-18T02:53:07;24.30;99.90
61004;DHT22;46889;37.310;13.582;2023-09-18T02:55:34;24.30;99.90
61004;DHT22;46889;37.310;13.582;2023-09-18T02:58:03;24.40;99.90
61004;DHT22;46889;37.310;13.582;2023-09-18T03:00:28;24.40;99.90
61004;DHT22;46889;37.310;13.582;2023-09-18T03:02:54;24.50;99.90
61004;DHT22;46889;37.310;13.582;2023-09-18T03:05:20;24.50;99.90
61004;DHT22;46889;37.310;13.582;2023-09-18T03:07:46;24.50;99.90
61004;DHT22;46889;37.310;13.582;2023-09-18T03:10:13;24.50;99.90
61004;DHT22;46889;37.310;13.582;2023-09-18T03:12:41;24.50;99.90
61004;DHT22;46889;37.310;13.582;2023-09-18T03:15:07;24.50;99.90
61004;DHT22;46889;37.310;13.582;2023-09-18T03:17:33;24.40;99.90
61004;DHT22;46889;37.310;13.582;2023-09-18T03:19:58;24.40;99.90
61004;DHT22;46889;37.310;13.582;2023-09-18T03:22:25;24.40;99.90
61004;DHT22;46889;37.310;13.582;2023-09-18T03:24:51;24.50;99.90
61004;DHT22;46889;37.310;13.582;2023-09-18T03:27:16;24.50;99.90
61004;DHT22;46889;37.310;13.582;2023-09-18T03:29:42;24.50;99.90
61004;DHT22;46889;37.310;13.582;2023-09-18T03:32:08;24.60;99.90
61004;DHT22;46889;37.310;13.582;2023-09-18T03:34:37;24.60;99.90
61004;DHT22;46889;37.310;13.582;2023-09-18T03:37:03;24.50;99.90
61004;DHT22;46889;37.310;13.582;2023-09-18T03:39:29;24.50;99.90
61004;DHT22;46889;37.310;13.582;2023-09-18T03:41:55;24.50;99.90
61004;DHT22;46889;37.310;13.582;2023-09-18T03:44:21;24.40;99.90
61004;DHT22;46889;37.310;13.582;2023-09-18T03:46:48;24.40;99.90
61004;DHT22;46889;37.310;13.582;2023-09-18T03:49:14;24.30;99.90
61004;DHT22;46889;37.310;13.582;2023-09-18T03:51:39;24.30;99.90
61004;DHT22;46889;37.310;13.582;2023-09-18T03:54:05;24.40;99.90
61004;DHT22;46889;37.310;13.582;2023-09-18T03:56:31;24.40;99.90
61004;DHT22;46889;37.310;13.582;2023-09-18T03:58:57;24.40;99.90
61004;DHT22;46889;37.310;13.582;2023-09-18T04:01:26;24.40;99.90
61004;DHT22;46889;37.310;13.582;2023-09-18T04:03:52;24.30;99.90
61004;DHT22;46889;37.310;13.582;2023-09-18T04:06:20;24.40;99.90
61004;DHT22;46889;37.310;13.582;2023-09-18T04:08:46;24.40;99.90
61004;DHT22;46889;37.310;13.582;2023-09-18T04:11:12;24.40;99.90
61004;DHT22;46889;37.310;13.582;2023-09-18T04:13:38;24.40;99.90
61004;DHT22;46889;37.310;13.582;2023-09-18T04:16:06;24.40;99.90
61004;DHT22;46889;37.310;13.582;2023-09-18T04:18:34;24.40;99.90
61004;DHT22;46889;37.310;13.582;2023-09-18T04:21:00;24.40;99.90
61004;DHT22;46889;37.310;13.582;2023-09-18T04:23:26;24.30;99.90
61004;DHT22;46889;37.310;13.582;2023-09-18T04:25:53;24.30;99.90
61004;DHT22;46889;37.310;13.582;2023-09-18T04:28:20;24.40;99.90
61004;DHT22;46889;37.310;13.582;2023-09-18T04:30:46;24.40;99.90
61004;DHT22;46889;37.310;13.582;2023-09-18T04:33:15;24.40;99.90
61004;DHT22;46889;37.310;13.582;2023-09-18T04:35:41;24.40;99.90
61004;DHT22;46889;37.310;13.582;2023-09-18T04:38:07;24.30;99.90
61004;DHT22;46889;37.310;13.582;2023-09-18T04:40:37;24.30;99.90
61004;DHT22;46889;37.310;13.582;2023-09-18T04:43:03;24.20;99.90
61004;DHT22;46889;37.310;13.582;2023-09-18T04:45:32;24.20;99.90
61004;DHT22;46889;37.310;13.582;2023-09-18T04:47:58;24.20;99.90
61004;DHT22;46889;37.310;13.582;2023-09-18T04:50:24;24.30;99.90
61004;DHT22;46889;37.310;13.582;2023-09-18T04:52:52;24.30;99.90
61004;DHT22;46889;37.310;13.582;2023-09-18T04:55:19;24.30;99.90
61004;DHT22;46889;37.310;13.582;2023-09-18T04:57:45;24.40;99.90
61004;DHT22;46889;37.310;13.582;2023-09-18T05:00:11;24.40;99.90
61004;DHT22;46889;37.310;13.582;2023-09-18T05:02:39;24.40;99.90
61004;DHT22;46889;37.310;13.582;2023-09-18T05:05:05;24.40;99.90
61004;DHT22;46889;37.310;13.582;2023-09-18T05:07:34;24.40;99.90
61004;DHT22;46889;37.310;13.582;2023-09-18T05:10:00;24.40;99.90
61004;DHT22;46889;37.310;13.582;2023-09-18T05:12:26;24.40;99.90
61004;DHT22;46889;37.310;13.582;2023-09-18T05:14:51;24.50;99.90
61004;DHT22;46889;37.310;13.582;2023-09-18T05:17:17;24.60;99.90
61004;DHT22;46889;37.310;13.582;2023-09-18T05:19:44;24.70;99.90
61004;DHT22;46889;37.310;13.582;2023-09-18T05:22:09;24.80;99.90
61004;DHT22;46889;37.310;13.582;2023-09-18T05:24:38;24.90;99.90
61004;DHT22;46889;37.310;13.582;2023-09-18T05:27:04;25.00;99.90
61004;DHT22;46889;37.310;13.582;2023-09-18T05:29:31;25.20;99.90
61004;DHT22;46889;37.310;13.582;2023-09-18T05:32:03;25.30;99.90
61004;DHT22;46889;37.310;13.582;2023-09-18T05:34:29;25.50;99.90
61004;DHT22;46889;37.310;13.582;2023-09-18T05:36:55;25.70;99.90
61004;DHT22;46889;37.310;13.582;2023-09-18T05:39:21;25.80;99.90
61004;DHT22;46889;37.310;13.582;2023-09-18T05:41:47;25.90;99.90
61004;DHT22;46889;37.310;13.582;2023-09-18T05:44:13;26.20;99.90
61004;DHT22;46889;37.310;13.582;2023-09-18T05:46:39;26.60;99.90
61004;DHT22;46889;37.310;13.582;2023-09-18T05:49:05;27.10;99.90
61004;DHT22;46889;37.310;13.582;2023-09-18T05:51:31;27.50;99.90
61004;DHT22;46889;37.310;13.582;2023-09-18T05:53:58;27.60;99.90
61004;DHT22;46889;37.310;13.582;2023-09-18T05:56:24;27.70;99.90
61004;DHT22;46889;37.310;13.582;2023-09-18T05:58:49;27.60;99.90
61004;DHT22;46889;37.310;13.582;2023-09-18T06:01:15;28.00;99.90
61004;DHT22;46889;37.310;13.582;2023-09-18T06:03:41;28.20;99.90
61004;DHT22;46889;37.310;13.582;2023-09-18T06:06:07;28.60;99.90
61004;DHT22;46889;37.310;13.582;2023-09-18T06:08:33;28.70;99.90
61004;DHT22;46889;37.310;13.582;2023-09-18T06:10:59;28.80;99.90
61004;DHT22;46889;37.310;13.582;2023-09-18T06:13:25;29.00;99.90
61004;DHT22;46889;37.310;13.582;2023-09-18T06:15:51;29.20;99.90
61004;DHT22;46889;37.310;13.582;2023-09-18T06:18:20;29.10;99.90
61004;DHT22;46889;37.310;13.582;2023-09-18T06:20:49;29.30;99.90
61004;DHT22;46889;37.310;13.582;2023-09-18T06:23:15;29.90;99.90
61004;DHT22;46889;37.310;13.582;2023-09-18T06:25:40;30.20;99.90
61004;DHT22;46889;37.310;13.582;2023-09-18T06:28:06;30.20;99.90
61004;DHT22;46889;37.310;13.582;2023-09-18T06:30:32;30.30;99.90
61004;DHT22;46889;37.310;13.582;2023-09-18T06:32:59;30.50;99.90
61004;DHT22;46889;37.310;13.582;2023-09-18T06:35:25;30.80;99.90
61004;DHT22;46889;37.310;13.582;2023-09-18T06:37:50;31.00;99.90
61004;DHT22;46889;37.310;13.582;2023-09-18T06:40:16;31.20;99.90
61004;DHT22;46889;37.310;13.582;2023-09-18T06:42:42;31.70;99.90
61004;DHT22;46889;37.310;13.582;2023-09-18T06:45:08;32.20;99.90
61004;DHT22;46889;37.310;13.582;2023-09-18T06:47:34;32.40;99.90
61004;DHT22;46889;37.310;13.582;2023-09-18T06:50:00;32.20;99.90
61004;DHT22;46889;37.310;13.582;2023-09-18T06:52:26;31.70;99.90
61004;DHT22;46889;37.310;13.582;2023-09-18T06:54:53;31.90;99.90
61004;DHT22;46889;37.310;13.582;2023-09-18T06:57:19;32.80;99.80
61004;DHT22;46889;37.310;13.582;2023-09-18T06:59:46;33.10;99.40
61004;DHT22;46889;37.310;13.582;2023-09-18T07:02:12;33.60;98.80
61004;DHT22;46889;37.310;13.582;2023-09-18T07:04:40;33.90;98.30
61004;DHT22;46889;37.310;13.582;2023-09-18T07:07:13;33.80;98.00
61004;DHT22;46889;37.310;13.582;2023-09-18T07:09:40;34.40;97.80
61004;DHT22;46889;37.310;13.582;2023-09-18T07:12:07;34.80;96.80
61004;DHT22;46889;37.310;13.582;2023-09-18T07:14:34;35.40;96.40
61004;DHT22;46889;37.310;13.582;2023-09-18T07:17:00;35.70;95.80
61004;DHT22;46889;37.310;13.582;2023-09-18T07:19:26;35.00;95.70
61004;DHT22;46889;37.310;13.582;2023-09-18T07:21:52;35.60;95.60
61004;DHT22;46889;37.310;13.582;2023-09-18T07:24:18;36.20;96.00
61004;DHT22;46889;37.310;13.582;2023-09-18T07:26:46;36.10;95.70
61004;DHT22;46889;37.310;13.582;2023-09-18T07:29:13;35.30;95.80
61004;DHT22;46889;37.310;13.582;2023-09-18T07:31:43;35.30;96.30
61004;DHT22;46889;37.310;13.582;2023-09-18T07:34:09;35.30;95.90
61004;DHT22;46889;37.310;13.582;2023-09-18T07:36:35;35.30;94.40
61004;DHT22;46889;37.310;13.582;2023-09-18T07:39:01;34.90;93.20
61004;DHT22;46889;37.310;13.582;2023-09-18T07:41:29;34.30;92.50
61004;DHT22;46889;37.310;13.582;2023-09-18T07:43:55;34.30;92.20
61004;DHT22;46889;37.310;13.582;2023-09-18T07:46:22;33.90;92.60
61004;DHT22;46889;37.310;13.582;2023-09-18T07:48:48;33.50;91.80
61004;DHT22;46889;37.310;13.582;2023-09-18T07:51:14;33.40;91.30
61004;DHT22;46889;37.310;13.582;2023-09-18T07:53:42;33.10;90.80
61004;DHT22;46889;37.310;13.582;2023-09-18T07:56:08;33.30;90.60
61004;DHT22;46889;37.310;13.582;2023-09-18T07:58:34;33.20;90.90
61004;DHT22;46889;37.310;13.582;2023-09-18T08:01:03;33.30;90.80
61004;DHT22;46889;37.310;13.582;2023-09-18T08:03:30;33.40;91.40
61004;DHT22;46889;37.310;13.582;2023-09-18T08:05:56;33.50;91.90
61004;DHT22;46889;37.310;13.582;2023-09-18T08:08:22;33.70;92.40
61004;DHT22;46889;37.310;13.582;2023-09-18T08:10:52;33.80;92.10
61004;DHT22;46889;37.310;13.582;2023-09-18T08:13:18;33.70;92.70
61004;DHT22;46889;37.310;13.582;2023-09-18T08:15:45;34.00;92.70
61004;DHT22;46889;37.310;13.582;2023-09-18T08:18:11;33.90;92.50
61004;DHT22;46889;37.310;13.582;2023-09-18T08:20:44;33.90;92.90
61004;DHT22;46889;37.310;13.582;2023-09-18T08:23:11;34.00;93.30
61004;DHT22;46889;37.310;13.582;2023-09-18T08:25:37;34.20;93.50
61004;DHT22;46889;37.310;13.582;2023-09-18T08:28:03;34.10;93.90
61004;DHT22;46889;37.310;13.582;2023-09-18T08:30:30;33.90;94.40
61004;DHT22;46889;37.310;13.582;2023-09-18T08:32:56;34.00;94.90
61004;DHT22;46889;37.310;13.582;2023-09-18T08:35:21;34.10;95.30
61004;DHT22;46889;37.310;13.582;2023-09-18T08:37:50;34.00;96.00
61004;DHT22;46889;37.310;13.582;2023-09-18T08:40:18;34.20;96.00
61004;DHT22;46889;37.310;13.582;2023-09-18T08:42:46;33.80;95.50
61004;DHT22;46889;37.310;13.582;2023-09-18T08:45:14;33.40;94.80
61004;DHT22;46889;37.310;13.582;2023-09-18T08:47:41;33.60;95.00
61004;DHT22;46889;37.310;13.582;2023-09-18T08:50:08;33.10;95.70
61004;DHT22;46889;37.310;13.582;2023-09-18T08:52:35;33.40;95.70
61004;DHT22;46889;37.310;13.582;2023-09-18T08:55:02;33.60;95.30
61004;DHT22;46889;37.310;13.582;2023-09-18T08:57:28;33.60;95.10
61004;DHT22;46889;37.310;13.582;2023-09-18T08:59:56;33.50;95.30
61004;DHT22;46889;37.310;13.582;2023-09-18T09:02:23;33.70;95.30
61004;DHT22;46889;37.310;13.582;2023-09-18T09:04:49;33.20;95.40
61004;DHT22;46889;37.310;13.582;2023-09-18T09:07:15;33.30;94.60
61004;DHT22;46889;37.310;13.582;2023-09-18T09:09:40;33.60;93.30
61004;DHT22;46889;37.310;13.582;2023-09-18T09:12:07;33.40;93.20
61004;DHT22;46889;37.310;13.582;2023-09-18T09:14:33;33.50;93.30
61004;DHT22;46889;37.310;13.582;2023-09-18T09:16:59;33.50;93.10
61004;DHT22;46889;37.310;13.582;2023-09-18T09:19:29;33.40;92.70
61004;DHT22;46889;37.310;13.582;2023-09-18T09:21:58;33.40;93.90
61004;DHT22;46889;37.310;13.582;2023-09-18T09:24:43;33.10;96.70
61004;DHT22;46889;37.310;13.582;2023-09-18T09:27:09;33.40;98.30
61004;DHT22;46889;37.310;13.582;2023-09-18T09:29:36;33.40;97.70
61004;DHT22;46889;37.310;13.582;2023-09-18T09:32:17;33.30;97.60
61004;DHT22;46889;37.310;13.582;2023-09-18T09:34:43;32.80;97.30
61004;DHT22;46889;37.310;13.582;2023-09-18T09:37:11;32.50;97.40
61004;DHT22;46889;37.310;13.582;2023-09-18T09:39:50;32.40;97.00
61004;DHT22;46889;37.310;13.582;2023-09-18T09:42:17;32.30;98.00
61004;DHT22;46889;37.310;13.582;2023-09-18T09:44:54;32.40;97.90
61004;DHT22;46889;37.310;13.582;2023-09-18T09:47:20;32.50;98.50
61004;DHT22;46889;37.310;13.582;2023-09-18T09:49:49;32.60;98.50
61004;DHT22;46889;37.310;13.582;2023-09-18T09:52:18;32.60;98.60
61004;DHT22;46889;37.310;13.582;2023-09-18T09:54:47;32.80;98.20
61004;DHT22;46889;37.310;13.582;2023-09-18T09:57:13;32.30;98.70
61004;DHT22;46889;37.310;13.582;2023-09-18T09:59:39;32.50;98.90
61004;DHT22;46889;37.310;13.582;2023-09-18T10:02:10;32.60;98.30
61004;DHT22;46889;37.310;13.582;2023-09-18T10:04:37;32.80;98.00
61004;DHT22;46889;37.310;13.582;2023-09-18T10:07:07;33.00;97.60
61004;DHT22;46889;37.310;13.582;2023-09-18T10:09:36;33.00;97.20
61004;DHT22;46889;37.310;13.582;2023-09-18T10:12:04;33.00;96.70
61004;DHT22;46889;37.310;13.582;2023-09-18T10:14:33;33.10;96.30
61004;DHT22;46889;37.310;13.582;2023-09-18T10:17:24;32.90;95.80
61004;DHT22;46889;37.310;13.582;2023-09-18T10:19:54;32.90;95.90
61004;DHT22;46889;37.310;13.582;2023-09-18T10:22:32;32.80;95.30
61004;DHT22;46889;37.310;13.582;2023-09-18T10:27:35;32.80;94.50
61004;DHT22;46889;37.310;13.582;2023-09-18T10:30:05;33.00;93.00
61004;DHT22;46889;37.310;13.582;2023-09-18T10:32:35;33.20;92.20
61004;DHT22;46889;37.310;13.582;2023-09-18T10:35:01;33.30;90.50
61004;DHT22;46889;37.310;13.582;2023-09-18T10:37:28;33.20;88.60
61004;DHT22;46889;37.310;13.582;2023-09-18T10:39:56;32.80;90.90
61004;DHT22;46889;37.310;13.582;2023-09-18T10:42:22;32.70;95.90
61004;DHT22;46889;37.310;13.582;2023-09-18T10:44:48;32.70;95.50
61004;DHT22;46889;37.310;13.582;2023-09-18T10:47:14;32.70;96.80
61004;DHT22;46889;37.310;13.582;2023-09-18T10:49:40;32.60;97.20
61004;DHT22;46889;37.310;13.582;2023-09-18T10:52:10;32.70;97.10
61004;DHT22;46889;37.310;13.582;2023-09-18T10:54:37;32.90;97.80
61004;DHT22;46889;37.310;13.582;2023-09-18T10:57:03;32.80;97.40
61004;DHT22;46889;37.310;13.582;2023-09-18T10:59:29;33.10;96.50
61004;DHT22;46889;37.310;13.582;2023-09-18T11:02:03;33.00;96.90
61004;DHT22;46889;37.310;13.582;2023-09-18T11:04:32;33.00;96.20
61004;DHT22;46889;37.310;13.582;2023-09-18T11:09:28;33.00;96.20
61004;DHT22;46889;37.310;13.582;2023-09-18T11:12:02;33.30;94.60
61004;DHT22;46889;37.310;13.582;2023-09-18T11:14:48;33.00;95.90
61004;DHT22;46889;37.310;13.582;2023-09-18T11:22:30;32.60;97.30
61004;DHT22;46889;37.310;13.582;2023-09-18T11:25:27;32.70;97.00
61004;DHT22;46889;37.310;13.582;2023-09-18T11:28:00;32.70;98.10
61004;DHT22;46889;37.310;13.582;2023-09-18T11:30:27;32.60;98.40
61004;DHT22;46889;37.310;13.582;2023-09-18T11:32:54;32.70;98.60
61004;DHT22;46889;37.310;13.582;2023-09-18T11:35:21;32.60;97.40
61004;DHT22;46889;37.310;13.582;2023-09-18T11:37:47;32.60;95.40
61004;DHT22;46889;37.310;13.582;2023-09-18T11:40:35;32.40;96.00
61004;DHT22;46889;37.310;13.582;2023-09-18T11:43:20;32.40;95.80
61004;DHT22;46889;37.310;13.582;2023-09-18T11:45:51;32.70;95.40
61004;DHT22;46889;37.310;13.582;2023-09-18T11:48:18;32.70;96.40
61004;DHT22;46889;37.310;13.582;2023-09-18T11:50:44;32.70;95.70
61004;DHT22;46889;37.310;13.582;2023-09-18T11:53:13;32.70;95.20
61004;DHT22;46889;37.310;13.582;2023-09-18T11:55:39;32.80;93.20
61004;DHT22;46889;37.310;13.582;2023-09-18T11:58:05;32.60;96.30
61004;DHT22;46889;37.310;13.582;2023-09-18T12:00:31;32.60;96.40
61004;DHT22;46889;37.310;13.582;2023-09-18T12:02:57;32.60;96.60
61004;DHT22;46889;37.310;13.582;2023-09-18T12:05:26;32.90;93.00
61004;DHT22;46889;37.310;13.582;2023-09-18T12:07:52;33.20;95.40
61004;DHT22;46889;37.310;13.582;2023-09-18T12:10:19;33.30;95.80
61004;DHT22;46889;37.310;13.582;2023-09-18T12:12:48;33.20;94.00
61004;DHT22;46889;37.310;13.582;2023-09-18T12:15:16;33.00;95.80
61004;DHT22;46889;37.310;13.582;2023-09-18T12:17:42;33.00;96.60
61004;DHT22;46889;37.310;13.582;2023-09-18T12:20:17;32.80;97.30
61004;DHT22;46889;37.310;13.582;2023-09-18T12:22:47;32.60;96.40
61004;DHT22;46889;37.310;13.582;2023-09-18T12:25:13;32.70;96.00
61004;DHT22;46889;37.310;13.582;2023-09-18T12:27:40;32.60;95.90
61004;DHT22;46889;37.310;13.582;2023-09-18T12:30:06;32.80;96.30
61004;DHT22;46889;37.310;13.582;2023-09-18T12:32:35;32.70;94.50
61004;DHT22;46889;37.310;13.582;2023-09-18T12:35:02;32.90;94.00
61004;DHT22;46889;37.310;13.582;2023-09-18T12:37:28;32.80;92.80
61004;DHT22;46889;37.310;13.582;2023-09-18T12:39:54;32.70;92.10
61004;DHT22;46889;37.310;13.582;2023-09-18T12:42:20;32.90;91.10
61004;DHT22;46889;37.310;13.582;2023-09-18T12:44:46;32.90;90.90
61004;DHT22;46889;37.310;13.582;2023-09-18T12:47:13;33.10;91.70
61004;DHT22;46889;37.310;13.582;2023-09-18T12:49:38;32.90;91.70
61004;DHT22;46889;37.310;13.582;2023-09-18T12:52:11;32.70;90.90
61004;DHT22;46889;37.310;13.582;2023-09-18T12:54:42;32.70;90.00
61004;DHT22;46889;37.310;13.582;2023-09-18T12:57:10;32.70;91.10
61004;DHT22;46889;37.310;13.582;2023-09-18T12:59:36;32.70;91.80
61004;DHT22;46889;37.310;13.582;2023-09-18T13:02:03;33.10;90.90
61004;DHT22;46889;37.310;13.582;2023-09-18T13:04:30;33.10;83.20
61004;DHT22;46889;37.310;13.582;2023-09-18T13:07:06;32.90;81.80
61004;DHT22;46889;37.310;13.582;2023-09-18T13:09:33;33.00;84.90
61004;DHT22;46889;37.310;13.582;2023-09-18T13:12:00;33.00;85.10
61004;DHT22;46889;37.310;13.582;2023-09-18T13:14:26;33.00;88.60
61004;DHT22;46889;37.310;13.582;2023-09-18T13:16:52;32.90;88.00
61004;DHT22;46889;37.310;13.582;2023-09-18T13:19:18;33.10;88.30
61004;DHT22;46889;37.310;13.582;2023-09-18T13:21:48;33.10;88.40
61004;DHT22;46889;37.310;13.582;2023-09-18T13:26:52;32.80;90.20
61004;DHT22;46889;37.310;13.582;2023-09-18T13:29:18;32.40;92.50
61004;DHT22;46889;37.310;13.582;2023-09-18T13:31:44;32.50;93.80
61004;DHT22;46889;37.310;13.582;2023-09-18T13:34:09;32.50;93.40
61004;DHT22;46889;37.310;13.582;2023-09-18T13:36:35;32.10;92.10
61004;DHT22;46889;37.310;13.582;2023-09-18T13:39:03;32.20;94.00
61004;DHT22;46889;37.310;13.582;2023-09-18T13:41:29;32.40;92.70
61004;DHT22;46889;37.310;13.582;2023-09-18T13:43:54;32.00;91.40
61004;DHT22;46889;37.310;13.582;2023-09-18T13:46:21;32.40;87.60
61004;DHT22;46889;37.310;13.582;2023-09-18T13:48:47;32.70;84.60
61004;DHT22;46889;37.310;13.582;2023-09-18T13:51:13;32.80;77.60
61004;DHT22;46889;37.310;13.582;2023-09-18T13:53:39;32.30;75.40
61004;DHT22;46889;37.310;13.582;2023-09-18T13:56:06;32.20;76.50
61004;DHT22;46889;37.310;13.582;2023-09-18T13:58:32;32.50;76.40
61004;DHT22;46889;37.310;13.582;2023-09-18T14:00:59;32.70;82.70
61004;DHT22;46889;37.310;13.582;2023-09-18T14:03:25;32.70;85.20
61004;DHT22;46889;37.310;13.582;2023-09-18T14:05:50;32.70;84.10
61004;DHT22;46889;37.310;13.582;2023-09-18T14:08:17;32.70;76.90
61004;DHT22;46889;37.310;13.582;2023-09-18T14:10:43;32.80;78.30
61004;DHT22;46889;37.310;13.582;2023-09-18T14:13:09;32.70;81.30
61004;DHT22;46889;37.310;13.582;2023-09-18T14:15:35;32.50;79.30
61004;DHT22;46889;37.310;13.582;2023-09-18T14:18:02;32.40;84.70
61004;DHT22;46889;37.310;13.582;2023-09-18T14:20:28;32.60;90.60
61004;DHT22;46889;37.310;13.582;2023-09-18T14:22:54;32.30;92.40
61004;DHT22;46889;37.310;13.582;2023-09-18T14:25:20;32.40;96.40
61004;DHT22;46889;37.310;13.582;2023-09-18T14:27:48;32.20;99.30
61004;DHT22;46889;37.310;13.582;2023-09-18T14:30:13;32.00;99.90
61004;DHT22;46889;37.310;13.582;2023-09-18T14:32:39;31.80;99.90
61004;DHT22;46889;37.310;13.582;2023-09-18T14:35:05;31.80;99.90
61004;DHT22;46889;37.310;13.582;2023-09-18T14:37:33;31.60;99.90
61004;DHT22;46889;37.310;13.582;2023-09-18T14:39:59;31.30;99.90
61004;DHT22;46889;37.310;13.582;2023-09-18T14:42:25;31.40;99.90
61004;DHT22;46889;37.310;13.582;2023-09-18T14:44:51;31.30;99.90
61004;DHT22;46889;37.310;13.582;2023-09-18T14:47:17;31.40;99.90
61004;DHT22;46889;37.310;13.582;2023-09-18T14:49:43;31.40;99.90
61004;DHT22;46889;37.310;13.582;2023-09-18T14:52:12;31.50;99.90
61004;DHT22;46889;37.310;13.582;2023-09-18T14:54:38;31.40;99.90
61004;DHT22;46889;37.310;13.582;2023-09-18T14:57:05;31.40;99.90
61004;DHT22;46889;37.310;13.582;2023-09-18T14:59:31;31.10;99.90
61004;DHT22;46889;37.310;13.582;2023-09-18T15:01:57;31.00;99.90
61004;DHT22;46889;37.310;13.582;2023-09-18T15:04:23;30.90;99.90
61004;DHT22;46889;37.310;13.582;2023-09-18T15:06:49;30.80;99.90
61004;DHT22;46889;37.310;13.582;2023-09-18T15:09:15;30.80;99.90
61004;DHT22;46889;37.310;13.582;2023-09-18T15:11:43;30.80;99.90
61004;DHT22;46889;37.310;13.582;2023-09-18T15:14:08;30.90;99.90
61004;DHT22;46889;37.310;13.582;2023-09-18T15:16:35;30.90;99.90
61004;DHT22;46889;37.310;13.582;2023-09-18T15:19:01;30.90;99.90
61004;DHT22;46889;37.310;13.582;2023-09-18T15:21:29;30.80;99.90
61004;DHT22;46889;37.310;13.582;2023-09-18T15:23:55;30.60;99.90
61004;DHT22;46889;37.310;13.582;2023-09-18T15:26:21;30.30;99.90
61004;DHT22;46889;37.310;13.582;2023-09-18T15:28:47;30.40;99.90
61004;DHT22;46889;37.310;13.582;2023-09-18T15:31:13;30.50;99.90